createdAt,value
2022-11-24T00:00:09.331Z,4.30
2022-11-24T00:05:11.984Z,4.43
2022-11-24T00:10:14.660Z,3.95
2022-11-24T00:15:18.781Z,3.80
2022-11-24T00:20:21.452Z,4.28
2022-11-24T00:25:24.099Z,3.70
2022-11-24T00:30:28.190Z,3.95
2022-11-24T00:35:30.846Z,3.53
2022-11-24T00:40:35.088Z,3.50
2022-11-24T00:45:39.464Z,3.80
2022-11-24T00:50:42.310Z,3.80
2022-11-24T00:55:45.016Z,3.63
2022-11-24T01:00:49.307Z,3.67
2022-11-24T01:05:51.968Z,3.30
2022-11-24T01:10:54.709Z,3.60
2022-11-24T01:15:58.836Z,3.10
2022-11-24T01:21:09.869Z,3.13
2022-11-24T01:26:16.027Z,3.03
2022-11-24T01:31:20.087Z,2.97
2022-11-24T01:36:23.371Z,3.20
2022-11-24T01:41:27.219Z,3.03
2022-11-24T01:46:35.267Z,2.80
2022-11-24T01:51:41.646Z,2.85
2022-11-24T01:56:47.294Z,3.25
2022-11-24T02:01:52.530Z,2.90
2022-11-24T02:06:55.887Z,2.70
2022-11-24T02:12:00.005Z,2.60
2022-11-24T02:17:04.050Z,2.85
2022-11-24T02:22:11.540Z,2.65
2022-11-24T02:27:15.576Z,2.80
2022-11-24T02:32:19.428Z,2.70
2022-11-24T02:37:22.075Z,2.40
2022-11-24T02:42:26.391Z,2.38
2022-11-24T02:47:29.284Z,2.42
2022-11-24T02:52:31.983Z,2.40
2022-11-24T02:57:36.099Z,2.25
2022-11-24T03:02:38.789Z,2.42
2022-11-24T03:07:41.645Z,2.38
2022-11-24T03:12:45.745Z,2.00
2022-11-24T03:17:48.391Z,2.20
2022-11-24T03:22:51.495Z,2.15
2022-11-24T03:27:56.736Z,2.10
2022-11-24T03:32:59.397Z,2.35
2022-11-24T03:38:02.129Z,2.20
2022-11-24T03:43:06.320Z,1.77
2022-11-24T03:48:09.017Z,2.00
2022-11-24T03:53:11.832Z,2.03
2022-11-24T03:58:15.831Z,2.17
2022-11-24T04:03:19.146Z,2.20
2022-11-24T04:08:21.820Z,1.98
2022-11-24T04:13:26.985Z,1.83
2022-11-24T04:18:29.633Z,2.03
2022-11-24T04:23:32.239Z,2.03
2022-11-24T04:28:36.612Z,1.75
2022-11-24T04:33:39.266Z,2.33
2022-11-24T04:39:23.378Z,1.80
2022-11-24T04:44:06.095Z,2.10
2022-11-24T04:49:11.553Z,1.90
2022-11-24T04:54:15.091Z,2.20
2022-11-24T04:59:19.792Z,2.00
2022-11-24T05:04:22.734Z,2.08
2022-11-24T05:09:36.912Z,2.03
2022-11-24T05:14:50.130Z,2.38
2022-11-24T05:19:52.791Z,2.13
2022-11-24T05:24:55.473Z,2.30
2022-11-24T05:29:59.560Z,1.90
2022-11-24T05:35:04.457Z,2.30
2022-11-24T05:40:08.032Z,1.80
2022-11-24T05:45:14.328Z,1.80
2022-11-24T05:50:18.556Z,1.92
2022-11-24T05:55:21.294Z,2.10
2022-11-24T06:00:25.355Z,2.00
2022-11-24T06:05:29.022Z,1.98
2022-11-24T06:10:31.974Z,2.10
2022-11-24T06:15:37.518Z,1.88
2022-11-24T06:20:40.143Z,1.90
2022-11-24T06:25:46.149Z,2.00
2022-11-24T06:30:52.774Z,1.90
2022-11-24T06:36:01.416Z,1.92
2022-11-24T06:41:06.245Z,1.80
2022-11-24T06:46:10.675Z,1.98
2022-11-24T06:51:14.315Z,1.80
2022-11-24T06:56:19.940Z,2.03
2022-11-24T07:01:25.695Z,1.92
2022-11-24T07:06:29.185Z,1.65
2022-11-24T07:11:31.850Z,1.90
2022-11-24T07:16:36.748Z,2.38
2022-11-24T07:21:39.477Z,2.13
2022-11-24T07:26:42.147Z,2.70
2022-11-24T07:31:46.745Z,2.00
2022-11-24T07:36:50.076Z,2.55
2022-11-24T10:12:11.179Z,1.77
2022-11-24T10:17:21.360Z,1.70
2022-11-24T10:22:37.755Z,1.70
2022-11-24T10:27:44.830Z,1.45
2022-11-24T10:32:49.328Z,1.65
2022-11-24T10:37:57.421Z,1.50
2022-11-24T10:43:01.712Z,1.40
2022-11-24T10:48:05.117Z,1.35
2022-11-24T10:53:15.878Z,1.60
2022-11-24T10:58:24.735Z,1.25
2022-11-24T11:03:28.747Z,1.40
2022-11-24T11:08:31.999Z,1.70
2022-11-24T11:13:35.949Z,1.48
2022-11-24T11:18:38.533Z,1.50
2022-11-24T11:23:41.594Z,1.33
2022-11-24T11:31:15.626Z,1.40
2022-11-24T11:34:28.514Z,1.45
2022-11-24T11:39:34.755Z,1.38
2022-11-24T11:44:40.582Z,1.50
2022-11-24T11:49:43.316Z,1.48
2022-11-24T11:55:00.704Z,1.40
2022-11-24T12:00:10.476Z,1.30
2022-11-24T12:05:18.937Z,1.60
2022-11-24T12:10:27.051Z,1.50
2022-11-24T12:15:33.703Z,1.10
2022-11-24T12:20:44.904Z,1.50
2022-11-24T12:25:50.937Z,1.40
2022-11-24T12:31:02.868Z,2.40
2022-11-24T12:36:13.151Z,1.55
2022-11-24T12:41:41.573Z,1.40
2022-11-24T12:46:53.521Z,1.40
2022-11-24T12:52:01.119Z,1.38
2022-11-24T12:57:08.317Z,1.55
2022-11-24T13:02:22.455Z,1.80
2022-11-24T13:07:38.788Z,1.40
2022-11-24T13:12:54.856Z,1.40
2022-11-24T13:18:08.680Z,1.50
2022-11-24T13:23:30.340Z,1.30
2022-11-24T13:29:05.763Z,1.40
2022-11-24T13:35:00.939Z,1.40
2022-11-24T13:40:59.871Z,1.25
2022-11-24T13:46:10.892Z,1.67
2022-11-24T13:51:24.398Z,1.40
2022-11-24T13:56:32.382Z,1.23
2022-11-24T14:01:40.804Z,1.35
2022-11-24T14:06:45.533Z,1.38
2022-11-24T14:11:58.344Z,1.38
2022-11-24T14:17:23.090Z,1.38
2022-11-24T14:22:32.211Z,1.42
2022-11-24T14:27:37.532Z,1.40
2022-11-24T14:32:40.377Z,1.10
2022-11-24T14:37:43.162Z,1.33
2022-11-24T14:42:51.608Z,1.50
2022-11-24T14:47:55.539Z,1.30
2022-11-24T14:52:59.143Z,1.30
2022-11-24T14:58:03.148Z,1.40
2022-11-24T15:03:15.947Z,1.60
2022-11-24T15:08:18.880Z,1.33
2022-11-24T15:13:24.435Z,1.33
2022-11-24T15:18:28.887Z,1.75
2022-11-24T15:23:32.013Z,1.70
2022-11-24T15:28:35.959Z,1.50
2022-11-24T15:33:39.233Z,1.75
2022-11-24T15:38:42.303Z,1.77
2022-11-24T15:43:46.282Z,1.60
2022-11-24T15:48:48.871Z,1.42
2022-11-24T15:53:55.787Z,1.77
2022-11-24T15:59:04.867Z,1.60
2022-11-24T16:04:07.655Z,1.50
2022-11-24T16:09:13.932Z,1.63
2022-11-24T16:14:17.914Z,1.85
2022-11-24T16:19:20.515Z,1.70
2022-11-24T16:24:23.120Z,1.60
2022-11-24T16:29:27.038Z,1.88
2022-11-24T16:34:29.630Z,1.70
2022-11-24T16:39:32.248Z,1.75
2022-11-24T16:44:36.402Z,1.58
2022-11-24T16:49:39.612Z,1.92
2022-11-24T16:54:42.258Z,1.58
2022-11-24T16:59:46.919Z,1.80
2022-11-24T17:04:52.159Z,1.85
2022-11-24T17:09:54.811Z,1.90
2022-11-24T17:15:30.286Z,1.60
2022-11-24T17:20:21.771Z,1.60
2022-11-24T17:25:24.385Z,1.63
2022-11-24T17:30:28.342Z,1.80
2022-11-24T17:35:30.933Z,1.70
2022-11-24T17:40:33.619Z,1.50
2022-11-24T17:45:37.649Z,1.52
2022-11-24T17:50:40.267Z,1.70
2022-11-24T17:55:42.936Z,1.50
2022-11-24T18:00:46.947Z,1.73
2022-11-24T18:05:50.088Z,1.73
2022-11-24T18:10:52.688Z,1.80
2022-11-24T18:16:00.393Z,1.73
2022-11-24T18:21:03.888Z,1.67
2022-11-24T18:26:07.479Z,1.50
2022-11-24T18:31:12.990Z,1.75
2022-11-24T18:36:18.077Z,1.80
2022-11-24T18:41:21.058Z,1.48
2022-11-24T18:46:25.159Z,1.63
2022-11-24T18:51:28.007Z,1.88
2022-11-24T18:56:30.664Z,10.85
2022-11-24T19:01:34.838Z,18.98
2022-11-24T19:06:38.568Z,42.72
2022-11-24T19:11:43.098Z,61.38
2022-11-24T19:16:47.803Z,83.03
2022-11-24T19:21:50.530Z,89.35
2022-11-24T19:26:54.180Z,88.22
2022-11-24T19:31:58.204Z,90.22
2022-11-24T19:37:00.848Z,89.35
2022-11-24T19:42:04.692Z,85.57
2022-11-24T19:47:08.696Z,83.72
2022-11-24T19:52:11.406Z,75.47
2022-11-24T19:57:14.137Z,71.28
2022-11-24T20:02:18.239Z,65.75
2022-11-24T20:07:21.041Z,61.65
2022-11-24T20:12:23.768Z,59.38
2022-11-24T20:17:29.944Z,57.20
2022-11-24T20:22:32.694Z,55.13
2022-11-24T20:27:35.425Z,54.03
2022-11-24T20:32:39.581Z,51.22
2022-11-24T20:37:42.268Z,49.45
2022-11-24T20:42:44.942Z,47.75
2022-11-24T20:47:48.970Z,47.75
2022-11-24T20:52:51.602Z,44.08
2022-11-24T20:57:54.240Z,43.30
2022-11-24T21:02:58.463Z,40.70
2022-11-24T21:08:01.115Z,39.10
2022-11-24T21:13:03.823Z,35.35
2022-11-24T21:18:07.893Z,37.30
2022-11-24T21:23:10.962Z,34.75
2022-11-24T21:28:13.894Z,35.17
2022-11-24T21:33:19.680Z,33.08
2022-11-24T21:38:25.240Z,32.20
2022-11-24T21:43:29.543Z,30.15
2022-11-24T21:48:34.285Z,29.40
2022-11-24T21:53:38.520Z,29.52
2022-11-24T21:58:45.728Z,27.23
2022-11-24T22:03:50.074Z,26.02
2022-11-24T22:08:52.835Z,24.95
2022-11-24T22:13:55.576Z,24.75
2022-11-24T22:19:01.016Z,22.40
2022-11-24T22:24:04.065Z,19.88
2022-11-24T22:29:07.648Z,21.65
2022-11-24T22:34:11.699Z,21.45
2022-11-24T22:39:14.695Z,18.27
2022-11-24T22:44:17.451Z,19.75
2022-11-24T22:49:23.513Z,17.55
2022-11-24T22:54:26.217Z,17.33
2022-11-24T22:59:28.918Z,17.85
2022-11-24T23:04:33.235Z,17.13
2022-11-24T23:09:36.151Z,16.45
2022-11-24T23:14:38.835Z,14.68
2022-11-24T23:19:42.881Z,15.40
2022-11-24T23:24:45.619Z,13.98
2022-11-24T23:29:48.292Z,14.23
2022-11-24T23:34:52.306Z,14.38
2022-11-24T23:39:54.993Z,12.48
2022-11-24T23:44:57.778Z,10.88
2022-11-24T23:50:01.837Z,11.75
2022-11-24T23:55:05.182Z,11.57
